sensor_id;sensor_type;location;lat;lon;timestamp;P1;durP1;ratioP1;P2;durP2;ratioP2
37791;SDS011;29527;55.766;37.570;2022-08-26T00:01:11;40.88;;;22.63;;
37791;SDS011;29527;55.766;37.570;2022-08-26T00:03:36;42.20;;;24.75;;
37791;SDS011;29527;55.766;37.570;2022-08-26T00:06:03;36.58;;;22.90;;
37791;SDS011;29527;55.766;37.570;2022-08-26T00:08:30;40.95;;;24.75;;
37791;SDS011;29527;55.766;37.570;2022-08-26T00:10:55;52.72;;;24.02;;
37791;SDS011;29527;55.766;37.570;2022-08-26T00:13:21;40.35;;;23.50;;
37791;SDS011;29527;55.766;37.570;2022-08-26T00:15:46;42.45;;;24.50;;
37791;SDS011;29527;55.766;37.570;2022-08-26T00:18:14;42.55;;;25.05;;
37791;SDS011;29527;55.766;37.570;2022-08-26T00:20:39;44.55;;;23.77;;
37791;SDS011;29527;55.766;37.570;2022-08-26T00:23:05;38.47;;;24.52;;
37791;SDS011;29527;55.766;37.570;2022-08-26T00:25:31;51.92;;;25.65;;
37791;SDS011;29527;55.766;37.570;2022-08-26T00:27:57;48.05;;;23.80;;
37791;SDS011;29527;55.766;37.570;2022-08-26T00:30:25;40.70;;;24.83;;
37791;SDS011;29527;55.766;37.570;2022-08-26T00:32:52;44.20;;;24.38;;
37791;SDS011;29527;55.766;37.570;2022-08-26T00:35:18;42.30;;;24.88;;
37791;SDS011;29527;55.766;37.570;2022-08-26T00:37:43;41.13;;;24.50;;
37791;SDS011;29527;55.766;37.570;2022-08-26T00:40:11;42.25;;;23.65;;
37791;SDS011;29527;55.766;37.570;2022-08-26T00:42:39;45.70;;;23.50;;
37791;SDS011;29527;55.766;37.570;2022-08-26T00:45:05;40.33;;;24.05;;
37791;SDS011;29527;55.766;37.570;2022-08-26T00:47:33;42.88;;;23.98;;
37791;SDS011;29527;55.766;37.570;2022-08-26T00:50:05;41.78;;;23.88;;
37791;SDS011;29527;55.766;37.570;2022-08-26T00:52:35;43.83;;;24.85;;
37791;SDS011;29527;55.766;37.570;2022-08-26T00:55:06;41.72;;;24.15;;
37791;SDS011;29527;55.766;37.570;2022-08-26T00:57:45;38.70;;;23.23;;
37791;SDS011;29527;55.766;37.570;2022-08-26T01:00:14;39.22;;;23.65;;
37791;SDS011;29527;55.766;37.570;2022-08-26T01:02:44;42.03;;;23.30;;
37791;SDS011;29527;55.766;37.570;2022-08-26T01:05:12;38.97;;;23.20;;
37791;SDS011;29527;55.766;37.570;2022-08-26T01:07:39;38.50;;;23.27;;
37791;SDS011;29527;55.766;37.570;2022-08-26T01:10:06;37.63;;;23.55;;
37791;SDS011;29527;55.766;37.570;2022-08-26T01:12:40;42.80;;;23.98;;
37791;SDS011;29527;55.766;37.570;2022-08-26T01:15:09;45.42;;;23.08;;
37791;SDS011;29527;55.766;37.570;2022-08-26T01:17:39;44.65;;;22.85;;
37791;SDS011;29527;55.766;37.570;2022-08-26T01:20:07;50.95;;;22.52;;
37791;SDS011;29527;55.766;37.570;2022-08-26T01:25:14;55.58;;;22.50;;
37791;SDS011;29527;55.766;37.570;2022-08-26T01:27:41;48.30;;;22.63;;
37791;SDS011;29527;55.766;37.570;2022-08-26T01:30:07;46.00;;;22.83;;
37791;SDS011;29527;55.766;37.570;2022-08-26T01:32:35;54.22;;;23.17;;
37791;SDS011;29527;55.766;37.570;2022-08-26T01:35:02;51.90;;;23.35;;
37791;SDS011;29527;55.766;37.570;2022-08-26T01:37:31;45.42;;;22.45;;
37791;SDS011;29527;55.766;37.570;2022-08-26T01:39:58;47.33;;;22.23;;
37791;SDS011;29527;55.766;37.570;2022-08-26T01:42:25;46.15;;;22.88;;
37791;SDS011;29527;55.766;37.570;2022-08-26T01:44:56;40.67;;;23.58;;
37791;SDS011;29527;55.766;37.570;2022-08-26T01:47:26;49.17;;;23.33;;
37791;SDS011;29527;55.766;37.570;2022-08-26T01:49:54;51.55;;;23.77;;
37791;SDS011;29527;55.766;37.570;2022-08-26T01:52:21;44.95;;;23.40;;
37791;SDS011;29527;55.766;37.570;2022-08-26T01:54:50;45.15;;;22.52;;
37791;SDS011;29527;55.766;37.570;2022-08-26T01:57:16;51.40;;;22.10;;
37791;SDS011;29527;55.766;37.570;2022-08-26T01:59:44;45.42;;;22.98;;
37791;SDS011;29527;55.766;37.570;2022-08-26T02:02:10;45.25;;;23.02;;
37791;SDS011;29527;55.766;37.570;2022-08-26T02:04:39;46.80;;;22.58;;
37791;SDS011;29527;55.766;37.570;2022-08-26T02:07:12;44.72;;;22.25;;
37791;SDS011;29527;55.766;37.570;2022-08-26T02:09:40;42.40;;;22.23;;
37791;SDS011;29527;55.766;37.570;2022-08-26T02:12:06;39.30;;;22.00;;
37791;SDS011;29527;55.766;37.570;2022-08-26T02:14:33;44.60;;;22.50;;
37791;SDS011;29527;55.766;37.570;2022-08-26T02:17:08;38.45;;;22.10;;
37791;SDS011;29527;55.766;37.570;2022-08-26T02:19:36;49.65;;;23.73;;
37791;SDS011;29527;55.766;37.570;2022-08-26T02:22:07;36.97;;;21.98;;
37791;SDS011;29527;55.766;37.570;2022-08-26T02:27:49;49.92;;;22.65;;
37791;SDS011;29527;55.766;37.570;2022-08-26T02:30:20;48.28;;;23.67;;
37791;SDS011;29527;55.766;37.570;2022-08-26T02:37:44;36.22;;;21.95;;
37791;SDS011;29527;55.766;37.570;2022-08-26T02:40:11;48.72;;;23.38;;
37791;SDS011;29527;55.766;37.570;2022-08-26T02:42:38;40.45;;;22.23;;
37791;SDS011;29527;55.766;37.570;2022-08-26T02:45:04;53.83;;;22.98;;
37791;SDS011;29527;55.766;37.570;2022-08-26T02:47:31;45.85;;;23.55;;
37791;SDS011;29527;55.766;37.570;2022-08-26T02:49:57;47.65;;;23.65;;
37791;SDS011;29527;55.766;37.570;2022-08-26T02:52:23;48.67;;;23.25;;
37791;SDS011;29527;55.766;37.570;2022-08-26T02:54:49;45.42;;;23.65;;
37791;SDS011;29527;55.766;37.570;2022-08-26T02:57:15;52.08;;;23.02;;
37791;SDS011;29527;55.766;37.570;2022-08-26T02:59:40;47.42;;;23.33;;
37791;SDS011;29527;55.766;37.570;2022-08-26T03:02:06;44.50;;;22.50;;
37791;SDS011;29527;55.766;37.570;2022-08-26T03:04:33;53.40;;;22.80;;
37791;SDS011;29527;55.766;37.570;2022-08-26T03:06:59;49.75;;;23.58;;
37791;SDS011;29527;55.766;37.570;2022-08-26T03:09:24;50.85;;;24.63;;
37791;SDS011;29527;55.766;37.570;2022-08-26T03:11:50;45.70;;;26.50;;
37791;SDS011;29527;55.766;37.570;2022-08-26T03:14:16;47.08;;;24.60;;
37791;SDS011;29527;55.766;37.570;2022-08-26T03:16:41;44.83;;;26.80;;
37791;SDS011;29527;55.766;37.570;2022-08-26T03:19:07;46.03;;;24.52;;
37791;SDS011;29527;55.766;37.570;2022-08-26T03:21:33;55.10;;;27.02;;
37791;SDS011;29527;55.766;37.570;2022-08-26T03:24:00;47.60;;;25.98;;
37791;SDS011;29527;55.766;37.570;2022-08-26T03:26:25;42.83;;;23.77;;
37791;SDS011;29527;55.766;37.570;2022-08-26T03:28:52;44.45;;;24.00;;
37791;SDS011;29527;55.766;37.570;2022-08-26T03:31:35;43.25;;;25.13;;
37791;SDS011;29527;55.766;37.570;2022-08-26T03:34:01;53.83;;;25.27;;
37791;SDS011;29527;55.766;37.570;2022-08-26T03:36:27;42.53;;;25.63;;
37791;SDS011;29527;55.766;37.570;2022-08-26T03:38:53;44.30;;;24.83;;
37791;SDS011;29527;55.766;37.570;2022-08-26T03:41:18;46.88;;;22.35;;
37791;SDS011;29527;55.766;37.570;2022-08-26T03:43:45;47.05;;;23.92;;
37791;SDS011;29527;55.766;37.570;2022-08-26T03:46:12;47.40;;;23.88;;
37791;SDS011;29527;55.766;37.570;2022-08-26T03:48:38;45.13;;;23.40;;
37791;SDS011;29527;55.766;37.570;2022-08-26T03:51:10;58.30;;;24.15;;
37791;SDS011;29527;55.766;37.570;2022-08-26T03:53:41;40.95;;;23.13;;
37791;SDS011;29527;55.766;37.570;2022-08-26T03:56:07;42.03;;;23.38;;
37791;SDS011;29527;55.766;37.570;2022-08-26T03:58:32;41.97;;;23.42;;
37791;SDS011;29527;55.766;37.570;2022-08-26T04:00:58;43.28;;;23.50;;
37791;SDS011;29527;55.766;37.570;2022-08-26T04:03:24;47.92;;;23.35;;
37791;SDS011;29527;55.766;37.570;2022-08-26T04:06:10;48.28;;;23.10;;
37791;SDS011;29527;55.766;37.570;2022-08-26T04:08:36;50.53;;;22.77;;
37791;SDS011;29527;55.766;37.570;2022-08-26T04:11:02;45.00;;;22.88;;
37791;SDS011;29527;55.766;37.570;2022-08-26T04:13:28;39.58;;;22.33;;
37791;SDS011;29527;55.766;37.570;2022-08-26T04:15:54;47.55;;;24.10;;
37791;SDS011;29527;55.766;37.570;2022-08-26T04:18:19;41.80;;;22.38;;
37791;SDS011;29527;55.766;37.570;2022-08-26T04:20:45;43.20;;;22.33;;
37791;SDS011;29527;55.766;37.570;2022-08-26T04:23:12;41.20;;;22.92;;
37791;SDS011;29527;55.766;37.570;2022-08-26T04:25:38;45.10;;;23.20;;
37791;SDS011;29527;55.766;37.570;2022-08-26T04:28:04;45.47;;;24.00;;
37791;SDS011;29527;55.766;37.570;2022-08-26T04:30:29;38.10;;;22.83;;
37791;SDS011;29527;55.766;37.570;2022-08-26T04:32:55;37.88;;;21.35;;
37791;SDS011;29527;55.766;37.570;2022-08-26T04:35:20;43.13;;;21.35;;
37791;SDS011;29527;55.766;37.570;2022-08-26T04:37:46;33.47;;;20.90;;
37791;SDS011;29527;55.766;37.570;2022-08-26T04:40:13;36.80;;;21.40;;
37791;SDS011;29527;55.766;37.570;2022-08-26T04:42:38;38.42;;;20.40;;
37791;SDS011;29527;55.766;37.570;2022-08-26T04:45:04;44.50;;;22.85;;
37791;SDS011;29527;55.766;37.570;2022-08-26T04:47:30;41.33;;;20.55;;
37791;SDS011;29527;55.766;37.570;2022-08-26T04:49:56;36.08;;;20.00;;
37791;SDS011;29527;55.766;37.570;2022-08-26T04:52:22;38.20;;;19.15;;
37791;SDS011;29527;55.766;37.570;2022-08-26T04:54:48;32.28;;;20.55;;
37791;SDS011;29527;55.766;37.570;2022-08-26T04:57:13;28.70;;;19.60;;
37791;SDS011;29527;55.766;37.570;2022-08-26T04:59:39;34.60;;;19.85;;
37791;SDS011;29527;55.766;37.570;2022-08-26T05:02:04;32.42;;;18.45;;
37791;SDS011;29527;55.766;37.570;2022-08-26T05:04:31;31.08;;;17.88;;
37791;SDS011;29527;55.766;37.570;2022-08-26T05:06:56;29.20;;;18.20;;
37791;SDS011;29527;55.766;37.570;2022-08-26T05:09:22;26.13;;;16.90;;
37791;SDS011;29527;55.766;37.570;2022-08-26T05:11:47;25.05;;;15.60;;
37791;SDS011;29527;55.766;37.570;2022-08-26T05:14:13;26.75;;;16.10;;
37791;SDS011;29527;55.766;37.570;2022-08-26T05:16:40;25.92;;;14.45;;
37791;SDS011;29527;55.766;37.570;2022-08-26T05:19:05;21.05;;;15.20;;
37791;SDS011;29527;55.766;37.570;2022-08-26T05:21:31;20.98;;;15.10;;
37791;SDS011;29527;55.766;37.570;2022-08-26T05:23:58;21.70;;;14.13;;
37791;SDS011;29527;55.766;37.570;2022-08-26T05:26:25;19.63;;;13.95;;
37791;SDS011;29527;55.766;37.570;2022-08-26T05:28:53;23.58;;;13.57;;
37791;SDS011;29527;55.766;37.570;2022-08-26T05:31:22;23.67;;;14.40;;
37791;SDS011;29527;55.766;37.570;2022-08-26T05:33:51;17.88;;;12.98;;
37791;SDS011;29527;55.766;37.570;2022-08-26T05:36:17;21.35;;;12.93;;
37791;SDS011;29527;55.766;37.570;2022-08-26T05:38:45;19.75;;;13.30;;
37791;SDS011;29527;55.766;37.570;2022-08-26T05:41:23;22.73;;;13.52;;
37791;SDS011;29527;55.766;37.570;2022-08-26T05:43:52;24.60;;;12.43;;
37791;SDS011;29527;55.766;37.570;2022-08-26T05:46:19;22.02;;;12.80;;
37791;SDS011;29527;55.766;37.570;2022-08-26T05:48:45;18.58;;;12.75;;
37791;SDS011;29527;55.766;37.570;2022-08-26T05:51:11;21.23;;;12.35;;
37791;SDS011;29527;55.766;37.570;2022-08-26T05:53:38;18.27;;;12.13;;
37791;SDS011;29527;55.766;37.570;2022-08-26T05:56:05;19.40;;;12.20;;
37791;SDS011;29527;55.766;37.570;2022-08-26T05:58:32;23.55;;;12.30;;
37791;SDS011;29527;55.766;37.570;2022-08-26T06:03:29;21.38;;;11.60;;
37791;SDS011;29527;55.766;37.570;2022-08-26T06:05:57;17.15;;;11.35;;
37791;SDS011;29527;55.766;37.570;2022-08-26T06:08:22;15.50;;;10.63;;
37791;SDS011;29527;55.766;37.570;2022-08-26T06:10:50;14.63;;;11.32;;
37791;SDS011;29527;55.766;37.570;2022-08-26T06:13:19;17.17;;;10.77;;
37791;SDS011;29527;55.766;37.570;2022-08-26T06:15:46;19.70;;;12.07;;
37791;SDS011;29527;55.766;37.570;2022-08-26T06:18:15;15.40;;;11.00;;
37791;SDS011;29527;55.766;37.570;2022-08-26T06:20:43;13.35;;;10.52;;
37791;SDS011;29527;55.766;37.570;2022-08-26T06:23:10;13.90;;;10.77;;
37791;SDS011;29527;55.766;37.570;2022-08-26T06:25:56;12.18;;;10.40;;
37791;SDS011;29527;55.766;37.570;2022-08-26T06:28:22;17.77;;;12.30;;
37791;SDS011;29527;55.766;37.570;2022-08-26T06:30:48;12.48;;;10.68;;
37791;SDS011;29527;55.766;37.570;2022-08-26T06:33:14;17.02;;;10.68;;
37791;SDS011;29527;55.766;37.570;2022-08-26T06:35:40;13.13;;;11.38;;
37791;SDS011;29527;55.766;37.570;2022-08-26T06:38:09;20.02;;;11.18;;
37791;SDS011;29527;55.766;37.570;2022-08-26T06:40:41;15.25;;;11.75;;
37791;SDS011;29527;55.766;37.570;2022-08-26T06:43:09;13.23;;;10.85;;
37791;SDS011;29527;55.766;37.570;2022-08-26T06:45:36;12.07;;;10.55;;
37791;SDS011;29527;55.766;37.570;2022-08-26T06:48:03;11.90;;;10.90;;
37791;SDS011;29527;55.766;37.570;2022-08-26T06:50:30;10.90;;;9.88;;
37791;SDS011;29527;55.766;37.570;2022-08-26T06:52:56;11.05;;;9.13;;
37791;SDS011;29527;55.766;37.570;2022-08-26T06:55:21;14.57;;;10.30;;
37791;SDS011;29527;55.766;37.570;2022-08-26T06:57:47;11.98;;;10.70;;
37791;SDS011;29527;55.766;37.570;2022-08-26T07:00:12;11.85;;;10.70;;
37791;SDS011;29527;55.766;37.570;2022-08-26T07:02:39;12.50;;;10.73;;
37791;SDS011;29527;55.766;37.570;2022-08-26T07:05:05;17.00;;;11.50;;
37791;SDS011;29527;55.766;37.570;2022-08-26T07:07:31;14.63;;;11.20;;
37791;SDS011;29527;55.766;37.570;2022-08-26T07:09:56;13.82;;;11.85;;
37791;SDS011;29527;55.766;37.570;2022-08-26T07:12:22;12.88;;;11.48;;
37791;SDS011;29527;55.766;37.570;2022-08-26T07:14:48;12.25;;;11.00;;
37791;SDS011;29527;55.766;37.570;2022-08-26T07:17:14;13.30;;;11.02;;
37791;SDS011;29527;55.766;37.570;2022-08-26T07:19:39;13.40;;;11.98;;
37791;SDS011;29527;55.766;37.570;2022-08-26T07:22:05;13.25;;;12.05;;
37791;SDS011;29527;55.766;37.570;2022-08-26T07:24:31;13.95;;;12.48;;
37791;SDS011;29527;55.766;37.570;2022-08-26T07:27:04;12.60;;;11.48;;
37791;SDS011;29527;55.766;37.570;2022-08-26T07:29:31;16.67;;;13.40;;
37791;SDS011;29527;55.766;37.570;2022-08-26T07:31:57;13.20;;;11.93;;
37791;SDS011;29527;55.766;37.570;2022-08-26T07:34:24;14.88;;;13.40;;
37791;SDS011;29527;55.766;37.570;2022-08-26T07:36:49;14.07;;;12.70;;
37791;SDS011;29527;55.766;37.570;2022-08-26T07:39:16;16.08;;;14.50;;
37791;SDS011;29527;55.766;37.570;2022-08-26T07:41:42;16.40;;;14.70;;
37791;SDS011;29527;55.766;37.570;2022-08-26T07:44:11;17.15;;;15.70;;
37791;SDS011;29527;55.766;37.570;2022-08-26T07:46:38;16.23;;;14.15;;
37791;SDS011;29527;55.766;37.570;2022-08-26T07:49:04;15.80;;;14.60;;
37791;SDS011;29527;55.766;37.570;2022-08-26T07:51:30;15.27;;;13.57;;
37791;SDS011;29527;55.766;37.570;2022-08-26T07:53:56;15.48;;;14.02;;
37791;SDS011;29527;55.766;37.570;2022-08-26T07:56:22;14.50;;;13.23;;
37791;SDS011;29527;55.766;37.570;2022-08-26T07:58:48;13.70;;;12.25;;
37791;SDS011;29527;55.766;37.570;2022-08-26T08:01:13;13.82;;;10.65;;
37791;SDS011;29527;55.766;37.570;2022-08-26T08:03:40;12.35;;;10.95;;
37791;SDS011;29527;55.766;37.570;2022-08-26T08:06:06;12.73;;;10.63;;
37791;SDS011;29527;55.766;37.570;2022-08-26T08:08:31;12.30;;;9.70;;
37791;SDS011;29527;55.766;37.570;2022-08-26T08:10:59;11.32;;;8.05;;
37791;SDS011;29527;55.766;37.570;2022-08-26T08:13:25;9.82;;;7.30;;
37791;SDS011;29527;55.766;37.570;2022-08-26T08:15:51;8.20;;;7.45;;
37791;SDS011;29527;55.766;37.570;2022-08-26T08:18:17;15.02;;;8.02;;
37791;SDS011;29527;55.766;37.570;2022-08-26T08:20:43;8.00;;;7.20;;
37791;SDS011;29527;55.766;37.570;2022-08-26T08:23:09;8.57;;;7.05;;
37791;SDS011;29527;55.766;37.570;2022-08-26T08:25:34;12.50;;;7.60;;
37791;SDS011;29527;55.766;37.570;2022-08-26T08:28:00;9.63;;;8.02;;
37791;SDS011;29527;55.766;37.570;2022-08-26T08:30:26;13.93;;;8.32;;
37791;SDS011;29527;55.766;37.570;2022-08-26T08:32:52;8.90;;;8.00;;
37791;SDS011;29527;55.766;37.570;2022-08-26T08:35:18;10.73;;;7.78;;
37791;SDS011;29527;55.766;37.570;2022-08-26T08:37:48;9.73;;;8.07;;
37791;SDS011;29527;55.766;37.570;2022-08-26T08:40:22;10.90;;;7.97;;
37791;SDS011;29527;55.766;37.570;2022-08-26T08:43:03;10.55;;;7.70;;
37791;SDS011;29527;55.766;37.570;2022-08-26T08:45:53;12.02;;;8.40;;
37791;SDS011;29527;55.766;37.570;2022-08-26T08:48:31;13.88;;;8.35;;
37791;SDS011;29527;55.766;37.570;2022-08-26T08:54:04;14.05;;;9.00;;
37791;SDS011;29527;55.766;37.570;2022-08-26T08:56:35;14.48;;;9.02;;
37791;SDS011;29527;55.766;37.570;2022-08-26T08:59:11;11.80;;;9.05;;
37791;SDS011;29527;55.766;37.570;2022-08-26T09:06:58;16.35;;;9.60;;
37791;SDS011;29527;55.766;37.570;2022-08-26T09:09:32;9.65;;;8.65;;
37791;SDS011;29527;55.766;37.570;2022-08-26T09:12:03;13.98;;;8.57;;
37791;SDS011;29527;55.766;37.570;2022-08-26T09:14:34;19.02;;;9.43;;
37791;SDS011;29527;55.766;37.570;2022-08-26T09:19:48;11.95;;;9.15;;
37791;SDS011;29527;55.766;37.570;2022-08-26T09:22:30;14.10;;;9.45;;
37791;SDS011;29527;55.766;37.570;2022-08-26T09:24:57;9.50;;;8.30;;
37791;SDS011;29527;55.766;37.570;2022-08-26T09:27:36;12.85;;;8.50;;
37791;SDS011;29527;55.766;37.570;2022-08-26T09:30:02;9.70;;;8.55;;
37791;SDS011;29527;55.766;37.570;2022-08-26T09:32:29;16.70;;;8.68;;
37791;SDS011;29527;55.766;37.570;2022-08-26T09:35:39;19.65;;;8.77;;
37791;SDS011;29527;55.766;37.570;2022-08-26T09:37:49;13.05;;;7.70;;
37791;SDS011;29527;55.766;37.570;2022-08-26T09:40:16;11.13;;;7.50;;
37791;SDS011;29527;55.766;37.570;2022-08-26T09:45:47;8.98;;;7.97;;
37791;SDS011;29527;55.766;37.570;2022-08-26T09:48:25;11.32;;;8.18;;
37791;SDS011;29527;55.766;37.570;2022-08-26T09:50:58;11.18;;;9.32;;
37791;SDS011;29527;55.766;37.570;2022-08-26T09:53:27;11.50;;;8.45;;
37791;SDS011;29527;55.766;37.570;2022-08-26T09:56:15;11.10;;;8.50;;
37791;SDS011;29527;55.766;37.570;2022-08-26T09:58:43;14.52;;;9.35;;
37791;SDS011;29527;55.766;37.570;2022-08-26T10:06:53;13.43;;;9.30;;
37791;SDS011;29527;55.766;37.570;2022-08-26T10:09:24;13.55;;;9.40;;
37791;SDS011;29527;55.766;37.570;2022-08-26T10:11:51;17.77;;;9.23;;
37791;SDS011;29527;55.766;37.570;2022-08-26T10:14:32;15.07;;;9.70;;
37791;SDS011;29527;55.766;37.570;2022-08-26T10:19:54;11.63;;;9.73;;
37791;SDS011;29527;55.766;37.570;2022-08-26T10:22:37;16.00;;;10.20;;
37791;SDS011;29527;55.766;37.570;2022-08-26T10:25:10;11.35;;;9.23;;
37791;SDS011;29527;55.766;37.570;2022-08-26T10:27:53;16.65;;;9.45;;
37791;SDS011;29527;55.766;37.570;2022-08-26T10:30:51;11.65;;;9.40;;
37791;SDS011;29527;55.766;37.570;2022-08-26T10:33:23;10.68;;;8.77;;
37791;SDS011;29527;55.766;37.570;2022-08-26T10:35:53;14.98;;;9.77;;
37791;SDS011;29527;55.766;37.570;2022-08-26T10:38:24;10.18;;;9.23;;
37791;SDS011;29527;55.766;37.570;2022-08-26T10:40:57;13.40;;;8.52;;
37791;SDS011;29527;55.766;37.570;2022-08-26T10:43:29;11.90;;;9.50;;
37791;SDS011;29527;55.766;37.570;2022-08-26T10:46:04;11.20;;;8.90;;
37791;SDS011;29527;55.766;37.570;2022-08-26T10:48:39;12.70;;;8.82;;
37791;SDS011;29527;55.766;37.570;2022-08-26T10:51:10;14.68;;;9.57;;
37791;SDS011;29527;55.766;37.570;2022-08-26T10:53:55;10.15;;;9.15;;
37791;SDS011;29527;55.766;37.570;2022-08-26T10:56:31;11.80;;;9.15;;
37791;SDS011;29527;55.766;37.570;2022-08-26T10:59:26;12.38;;;9.38;;
37791;SDS011;29527;55.766;37.570;2022-08-26T11:04:39;15.55;;;9.02;;
37791;SDS011;29527;55.766;37.570;2022-08-26T11:12:52;9.80;;;7.32;;
37791;SDS011;29527;55.766;37.570;2022-08-26T11:18:05;7.72;;;6.93;;
37791;SDS011;29527;55.766;37.570;2022-08-26T11:20:37;9.18;;;6.70;;
37791;SDS011;29527;55.766;37.570;2022-08-26T11:31:11;9.00;;;7.90;;
37791;SDS011;29527;55.766;37.570;2022-08-26T11:33:44;9.15;;;7.82;;
37791;SDS011;29527;55.766;37.570;2022-08-26T11:39:02;10.13;;;8.07;;
37791;SDS011;29527;55.766;37.570;2022-08-26T11:41:38;10.38;;;7.65;;
37791;SDS011;29527;55.766;37.570;2022-08-26T11:44:08;10.45;;;7.43;;
37791;SDS011;29527;55.766;37.570;2022-08-26T11:46:34;10.93;;;7.93;;
37791;SDS011;29527;55.766;37.570;2022-08-26T11:49:06;8.25;;;7.40;;
37791;SDS011;29527;55.766;37.570;2022-08-26T11:51:32;7.88;;;7.07;;
37791;SDS011;29527;55.766;37.570;2022-08-26T11:54:09;8.15;;;7.32;;
37791;SDS011;29527;55.766;37.570;2022-08-26T11:56:43;10.15;;;7.78;;
37791;SDS011;29527;55.766;37.570;2022-08-26T11:59:13;8.30;;;7.50;;
37791;SDS011;29527;55.766;37.570;2022-08-26T12:01:43;9.57;;;7.65;;
37791;SDS011;29527;55.766;37.570;2022-08-26T12:04:20;8.55;;;7.03;;
37791;SDS011;29527;55.766;37.570;2022-08-26T12:06:54;10.90;;;7.50;;
37791;SDS011;29527;55.766;37.570;2022-08-26T12:09:22;7.93;;;6.88;;
37791;SDS011;29527;55.766;37.570;2022-08-26T12:12:07;8.68;;;6.93;;
37791;SDS011;29527;55.766;37.570;2022-08-26T12:14:34;11.63;;;7.10;;
37791;SDS011;29527;55.766;37.570;2022-08-26T12:17:24;11.43;;;7.35;;
37791;SDS011;29527;55.766;37.570;2022-08-26T12:19:51;8.32;;;7.53;;
37791;SDS011;29527;55.766;37.570;2022-08-26T12:22:18;17.05;;;7.90;;
37791;SDS011;29527;55.766;37.570;2022-08-26T12:27:24;8.10;;;7.30;;
37791;SDS011;29527;55.766;37.570;2022-08-26T12:29:59;9.10;;;7.80;;
37791;SDS011;29527;55.766;37.570;2022-08-26T12:32:31;9.43;;;7.40;;
37791;SDS011;29527;55.766;37.570;2022-08-26T12:34:57;9.52;;;7.88;;
37791;SDS011;29527;55.766;37.570;2022-08-26T12:37:24;17.05;;;8.00;;
37791;SDS011;29527;55.766;37.570;2022-08-26T12:39:51;14.20;;;7.93;;
37791;SDS011;29527;55.766;37.570;2022-08-26T12:44:44;17.40;;;7.50;;
37791;SDS011;29527;55.766;37.570;2022-08-26T12:47:30;12.90;;;7.75;;
37791;SDS011;29527;55.766;37.570;2022-08-26T12:50:10;10.15;;;7.50;;
37791;SDS011;29527;55.766;37.570;2022-08-26T12:55:24;10.32;;;7.68;;
37791;SDS011;29527;55.766;37.570;2022-08-26T13:09:03;8.60;;;7.68;;
37791;SDS011;29527;55.766;37.570;2022-08-26T13:14:11;8.75;;;7.82;;
37791;SDS011;29527;55.766;37.570;2022-08-26T13:19:08;11.00;;;8.30;;
37791;SDS011;29527;55.766;37.570;2022-08-26T13:21:42;11.93;;;7.97;;
37791;SDS011;29527;55.766;37.570;2022-08-26T13:24:13;10.07;;;7.72;;
37791;SDS011;29527;55.766;37.570;2022-08-26T13:26:44;10.25;;;8.10;;
37791;SDS011;29527;55.766;37.570;2022-08-26T13:29:13;13.05;;;7.45;;
37791;SDS011;29527;55.766;37.570;2022-08-26T13:31:39;9.48;;;7.40;;
37791;SDS011;29527;55.766;37.570;2022-08-26T13:34:08;8.00;;;7.22;;
37791;SDS011;29527;55.766;37.570;2022-08-26T13:36:36;9.15;;;8.25;;
37791;SDS011;29527;55.766;37.570;2022-08-26T13:39:02;10.32;;;7.28;;
37791;SDS011;29527;55.766;37.570;2022-08-26T13:41:28;18.70;;;8.57;;
37791;SDS011;29527;55.766;37.570;2022-08-26T13:43:56;9.85;;;7.47;;
37791;SDS011;29527;55.766;37.570;2022-08-26T13:46:22;11.02;;;7.90;;
37791;SDS011;29527;55.766;37.570;2022-08-26T13:48:48;9.77;;;7.70;;
37791;SDS011;29527;55.766;37.570;2022-08-26T13:51:14;12.25;;;7.70;;
37791;SDS011;29527;55.766;37.570;2022-08-26T13:53:40;10.73;;;7.88;;
37791;SDS011;29527;55.766;37.570;2022-08-26T13:56:05;9.45;;;7.50;;
37791;SDS011;29527;55.766;37.570;2022-08-26T13:58:31;10.45;;;7.72;;
37791;SDS011;29527;55.766;37.570;2022-08-26T14:00:56;8.30;;;7.25;;
37791;SDS011;29527;55.766;37.570;2022-08-26T14:03:22;8.23;;;7.40;;
37791;SDS011;29527;55.766;37.570;2022-08-26T14:05:49;11.07;;;7.70;;
37791;SDS011;29527;55.766;37.570;2022-08-26T14:08:15;8.88;;;7.70;;
37791;SDS011;29527;55.766;37.570;2022-08-26T14:10:41;8.68;;;7.22;;
37791;SDS011;29527;55.766;37.570;2022-08-26T14:13:06;10.10;;;7.60;;
37791;SDS011;29527;55.766;37.570;2022-08-26T14:15:32;12.85;;;8.13;;
37791;SDS011;29527;55.766;37.570;2022-08-26T14:18:00;14.07;;;8.70;;
37791;SDS011;29527;55.766;37.570;2022-08-26T14:20:28;11.13;;;7.95;;
37791;SDS011;29527;55.766;37.570;2022-08-26T14:22:55;8.63;;;7.68;;
37791;SDS011;29527;55.766;37.570;2022-08-26T14:25:21;13.50;;;7.97;;
37791;SDS011;29527;55.766;37.570;2022-08-26T14:27:48;9.82;;;7.93;;
37791;SDS011;29527;55.766;37.570;2022-08-26T14:30:14;9.95;;;8.25;;
37791;SDS011;29527;55.766;37.570;2022-08-26T14:32:42;13.05;;;8.50;;
37791;SDS011;29527;55.766;37.570;2022-08-26T14:35:12;9.13;;;8.25;;
37791;SDS011;29527;55.766;37.570;2022-08-26T14:37:40;10.60;;;7.90;;
37791;SDS011;29527;55.766;37.570;2022-08-26T14:40:06;11.70;;;8.23;;
37791;SDS011;29527;55.766;37.570;2022-08-26T14:42:32;11.73;;;8.27;;
37791;SDS011;29527;55.766;37.570;2022-08-26T14:44:59;12.32;;;8.70;;
37791;SDS011;29527;55.766;37.570;2022-08-26T14:47:26;14.55;;;8.68;;
37791;SDS011;29527;55.766;37.570;2022-08-26T14:49:52;15.43;;;9.57;;
37791;SDS011;29527;55.766;37.570;2022-08-26T14:52:17;14.10;;;9.70;;
37791;SDS011;29527;55.766;37.570;2022-08-26T14:54:43;22.33;;;9.68;;
37791;SDS011;29527;55.766;37.570;2022-08-26T14:57:09;12.93;;;7.90;;
37791;SDS011;29527;55.766;37.570;2022-08-26T14:59:40;11.45;;;8.65;;
37791;SDS011;29527;55.766;37.570;2022-08-26T15:02:11;12.27;;;8.10;;
37791;SDS011;29527;55.766;37.570;2022-08-26T15:04:38;12.38;;;8.15;;
37791;SDS011;29527;55.766;37.570;2022-08-26T15:07:04;11.73;;;8.60;;
37791;SDS011;29527;55.766;37.570;2022-08-26T15:09:31;13.30;;;8.32;;
37791;SDS011;29527;55.766;37.570;2022-08-26T15:11:58;11.55;;;8.48;;
37791;SDS011;29527;55.766;37.570;2022-08-26T15:14:24;15.40;;;8.73;;
37791;SDS011;29527;55.766;37.570;2022-08-26T15:16:52;13.35;;;8.35;;
37791;SDS011;29527;55.766;37.570;2022-08-26T15:19:20;9.70;;;8.70;;
37791;SDS011;29527;55.766;37.570;2022-08-26T15:21:46;11.13;;;8.05;;
37791;SDS011;29527;55.766;37.570;2022-08-26T15:24:13;11.90;;;8.75;;
37791;SDS011;29527;55.766;37.570;2022-08-26T15:26:41;17.67;;;8.80;;
37791;SDS011;29527;55.766;37.570;2022-08-26T15:29:06;11.75;;;8.00;;
37791;SDS011;29527;55.766;37.570;2022-08-26T15:31:32;13.07;;;8.10;;
37791;SDS011;29527;55.766;37.570;2022-08-26T15:33:58;9.07;;;8.13;;
37791;SDS011;29527;55.766;37.570;2022-08-26T15:36:26;9.23;;;8.02;;
37791;SDS011;29527;55.766;37.570;2022-08-26T15:38:53;10.57;;;8.32;;
37791;SDS011;29527;55.766;37.570;2022-08-26T15:41:18;12.77;;;8.75;;
37791;SDS011;29527;55.766;37.570;2022-08-26T15:43:44;11.63;;;8.25;;
37791;SDS011;29527;55.766;37.570;2022-08-26T15:46:10;9.63;;;8.02;;